Time;durP1;ratioP1;P1;durP2;ratioP2;P2;SDS_P1;SDS_P2;PMS_P1;PMS_P2;Temp;Humidity;BMP_temperature;BMP_pressure;BME280_temperature;BME280_humidity;BME280_pressure;Samples;Min_cycle;Max_cycle;Signal;HPM_P1;HPM_P2
2022/02/04 00:09:01;;;;;;;13.82;8.18;;;5.70;97.80;;;;;;4988972;28;20034;-74
2022/02/04 00:22:36;;;;;;;14.07;7.30;;;5.60;98.10;;;;;;4991363;28;20045;-73
2022/02/04 00:24:53;;;;;;;14.15;8.27;;;5.30;98.00;;;;;;4994187;28;20050;-74
2022/02/04 00:27:22;;;;;;;11.68;7.30;;;5.60;98.50;;;;;;4994409;28;20458;-74
2022/02/04 00:30:03;;;;;;;12.80;7.35;;;5.70;98.10;;;;;;4992718;28;20026;-74
2022/02/04 00:32:31;;;;;;;13.63;7.90;;;5.70;97.90;;;;;;4995531;28;20133;-73
2022/02/04 00:35:28;;;;;;;12.93;6.97;;;5.70;97.90;;;;;;4993790;28;20039;-74
2022/02/04 00:40:21;;;;;;;15.80;7.28;;;5.40;98.30;;;;;;4986481;28;20069;-74
2022/02/04 00:42:48;;;;;;;11.75;7.50;;;5.40;98.30;;;;;;4992548;28;20025;-74
2022/02/04 00:45:23;;;;;;;12.05;7.68;;;5.40;98.50;;;;;;4994108;28;20415;-74
2022/02/04 00:47:57;;;;;;;10.85;6.75;;;5.60;98.50;;;;;;4989851;28;20052;-73
2022/02/04 00:50:38;;;;;;;10.85;6.53;;;5.50;98.20;;;;;;4993381;28;20129;-74
2022/02/04 00:53:16;;;;;;;12.48;6.88;;;5.50;98.10;;;;;;4992751;28;20030;-74
2022/02/04 00:55:49;;;;;;;14.93;7.43;;;5.20;98.20;;;;;;4993250;28;20030;-74
2022/02/04 01:28:22;;;;;;;11.15;7.57;;;5.20;98.80;;;;;;4993067;28;21082;-74
2022/02/04 01:30:48;;;;;;;12.90;7.78;;;5.00;98.70;;;;;;4984793;28;20022;-74
2022/02/04 01:33:14;;;;;;;13.50;7.18;;;5.00;98.80;;;;;;4994119;28;20531;-74
2022/02/04 01:35:40;;;;;;;12.90;7.60;;;5.00;98.70;;;;;;4988124;28;20061;-73
2022/02/04 01:38:05;;;;;;;10.77;8.20;;;5.00;98.90;;;;;;4992953;28;20023;-74
2022/02/04 01:40:31;;;;;;;16.77;8.32;;;5.00;98.90;;;;;;4991308;28;20027;-74
2022/02/04 01:42:57;;;;;;;15.27;9.07;;;5.10;99.20;;;;;;4994137;28;20092;-74
2022/02/04 01:45:22;;;;;;;12.30;6.85;;;5.20;99.30;;;;;;4991096;28;20393;-74
2022/02/04 01:47:57;;;;;;;17.63;8.75;;;5.10;99.30;;;;;;4988637;28;20030;-74
2022/02/04 01:50:24;;;;;;;12.02;7.53;;;5.20;98.80;;;;;;4989691;28;20058;-73
2022/02/04 01:52:50;;;;;;;13.10;7.93;;;4.90;99.10;;;;;;4991247;28;20140;-74
2022/02/04 01:55:16;;;;;;;16.08;7.38;;;5.00;99.70;;;;;;4991578;28;20497;-73
2022/02/04 01:57:42;;;;;;;13.02;7.88;;;5.20;99.30;;;;;;4993305;28;20057;-74
2022/02/04 02:00:10;;;;;;;14.13;9.10;;;5.30;99.30;;;;;;4992697;28;20030;-74
2022/02/04 02:02:36;;;;;;;12.57;7.88;;;5.20;99.10;;;;;;4993687;28;20036;-73
2022/02/04 02:05:02;;;;;;;14.65;9.02;;;5.00;99.40;;;;;;4983011;28;20392;-74
2022/02/04 02:07:29;;;;;;;19.35;9.65;;;5.10;99.40;;;;;;4985292;28;20407;-73
2022/02/04 02:10:07;;;;;;;10.95;7.78;;;4.90;99.40;;;;;;4991085;28;20050;-74
2022/02/04 02:12:44;;;;;;;14.18;7.70;;;4.90;99.30;;;;;;4990961;28;20081;-73
2022/02/04 02:15:31;;;;;;;12.05;7.18;;;4.60;99.20;;;;;;4992724;28;20040;-73
2022/02/04 02:55:37;;;;;;;13.88;7.78;;;4.00;99.90;;;;;;4973076;28;20424;-73
2022/02/04 02:58:10;;;;;;;15.68;10.02;;;3.90;99.90;;;;;;4984277;28;20033;-74
2022/02/04 03:01:01;;;;;;;15.88;8.95;;;4.00;99.90;;;;;;4988373;28;20026;-73
2022/02/04 03:03:30;;;;;;;16.10;8.88;;;3.90;99.90;;;;;;4986070;28;20943;-74
2022/02/04 03:05:56;;;;;;;14.73;8.95;;;3.90;99.90;;;;;;4981809;28;20117;-73
2022/02/04 03:08:22;;;;;;;16.42;8.50;;;3.80;99.90;;;;;;4985947;28;20114;-74
2022/02/04 03:10:56;;;;;;;13.57;8.88;;;4.00;99.90;;;;;;4981648;28;20634;-74
2022/02/04 03:13:27;;;;;;;16.42;9.70;;;3.80;99.90;;;;;;4979602;28;20069;-74
2022/02/04 03:16:00;;;;;;;18.90;9.55;;;3.90;99.90;;;;;;4986087;28;20777;-73
2022/02/04 03:18:29;;;;;;;16.33;9.52;;;4.00;99.90;;;;;;4981935;28;20417;-74
2022/02/04 03:21:01;;;;;;;18.33;10.18;;;4.00;99.90;;;;;;4985221;28;20045;-74
2022/02/04 03:23:29;;;;;;;15.02;8.88;;;4.00;99.90;;;;;;4985970;28;20061;-74
2022/02/04 03:26:06;;;;;;;12.70;7.95;;;4.10;99.90;;;;;;4986433;28;20048;-73
2022/02/04 03:28:32;;;;;;;14.93;9.00;;;4.00;99.90;;;;;;4987181;28;20030;-75
2022/02/04 03:30:59;;;;;;;15.10;9.05;;;3.90;99.90;;;;;;4978706;28;20038;-73
2022/02/04 03:33:27;;;;;;;16.80;8.75;;;3.90;99.90;;;;;;4986907;28;20034;-73
2022/02/04 03:35:53;;;;;;;17.38;9.30;;;3.80;99.90;;;;;;4977376;28;20121;-73
2022/02/04 03:38:19;;;;;;;16.02;8.25;;;3.90;99.90;;;;;;4984212;28;20113;-75
2022/02/04 03:40:45;;;;;;;14.80;8.65;;;4.10;99.90;;;;;;4981082;28;20482;-74
2022/02/04 03:43:10;;;;;;;14.75;8.52;;;4.00;99.90;;;;;;4985462;28;20031;-74
2022/02/04 03:45:36;;;;;;;15.80;9.30;;;4.10;99.90;;;;;;4983842;28;20037;-74
2022/02/04 03:48:02;;;;;;;16.05;9.32;;;4.00;99.90;;;;;;4983743;28;20030;-74
2022/02/04 03:50:28;;;;;;;16.25;9.27;;;3.90;99.90;;;;;;4987724;28;20034;-73
2022/02/04 03:52:54;;;;;;;14.90;9.27;;;3.90;99.90;;;;;;4982619;28;20052;-74
2022/02/04 03:55:20;;;;;;;18.67;10.50;;;3.80;99.90;;;;;;4987407;28;20096;-74
2022/02/04 03:57:46;;;;;;;14.60;9.07;;;3.80;99.90;;;;;;4981249;28;20101;-74
2022/02/04 04:00:16;;;;;;;16.05;9.35;;;3.80;99.90;;;;;;4986325;28;20365;-73
2022/02/04 04:02:42;;;;;;;21.25;9.57;;;3.70;99.90;;;;;;4975681;28;20027;-73
2022/02/04 04:05:10;;;;;;;14.85;8.85;;;3.80;99.90;;;;;;4974691;28;20490;-74
2022/02/04 04:07:43;;;;;;;13.82;9.13;;;3.80;99.90;;;;;;4975332;28;20416;-73
2022/02/04 04:10:13;;;;;;;16.38;9.07;;;3.90;99.90;;;;;;4984396;28;20019;-73
2022/02/04 04:12:39;;;;;;;14.10;8.57;;;3.90;99.90;;;;;;4984872;28;20456;-73
2022/02/04 04:15:08;;;;;;;14.20;8.98;;;3.70;99.90;;;;;;4981896;28;20029;-73
2022/02/04 04:17:42;;;;;;;16.58;9.35;;;3.70;99.90;;;;;;4975433;28;20113;-73
2022/02/04 04:20:10;;;;;;;16.27;9.45;;;3.60;99.90;;;;;;4976852;28;20849;-73
2022/02/04 04:22:37;;;;;;;14.00;9.15;;;3.70;99.90;;;;;;4975685;28;20114;-73
2022/02/04 04:25:04;;;;;;;19.40;10.05;;;3.80;99.90;;;;;;4982015;28;20058;-73
2022/02/04 04:27:30;;;;;;;16.45;8.27;;;3.80;99.90;;;;;;4979514;28;20058;-73
2022/02/04 04:29:56;;;;;;;16.17;8.00;;;3.90;99.90;;;;;;4984964;28;20061;-73
2022/02/04 04:32:22;;;;;;;16.75;9.07;;;3.70;99.90;;;;;;4986668;28;20066;-73
2022/02/04 04:34:47;;;;;;;15.05;9.15;;;3.70;99.90;;;;;;4986395;28;20045;-73
2022/02/04 04:37:13;;;;;;;16.48;8.27;;;3.80;99.90;;;;;;4982597;28;20041;-74
2022/02/04 05:28:55;;;;;;;14.18;8.00;;;3.60;99.90;;;;;;4986862;28;20547;-73
2022/02/04 05:31:21;;;;;;;17.40;9.52;;;3.50;99.90;;;;;;4984968;28;20034;-73
2022/02/04 05:33:48;;;;;;;15.73;9.35;;;3.50;99.90;;;;;;4986424;28;20034;-73
2022/02/04 05:36:14;;;;;;;16.45;8.10;;;3.50;99.90;;;;;;4986934;28;20114;-74
2022/02/04 05:38:41;;;;;;;13.90;7.93;;;3.50;99.90;;;;;;4987823;28;20121;-73
2022/02/04 05:41:09;;;;;;;15.73;8.48;;;3.30;99.90;;;;;;4986931;28;20030;-73
2022/02/04 05:43:38;;;;;;;14.25;8.13;;;3.50;99.90;;;;;;4985577;28;20049;-74
2022/02/04 05:46:11;;;;;;;13.80;7.90;;;3.30;99.90;;;;;;4987273;28;20473;-73
2022/02/04 05:48:41;;;;;;;13.60;8.40;;;3.60;99.90;;;;;;4989713;28;20034;-74
2022/02/04 05:59:32;;;;;;;10.02;5.97;;;3.70;99.70;;;;;;4983081;28;20031;-73
2022/02/04 06:07:17;;;;;;;11.30;6.70;;;3.50;99.70;;;;;;4978897;28;20400;-73
2022/02/04 06:22:08;;;;;;;18.15;8.13;;;2.90;99.90;;;;;;4978949;28;20503;-73
2022/02/04 06:23:13;;;;;;;11.70;8.02;;;3.00;99.90;;;;;;4985777;28;20078;-72
2022/02/04 06:25:40;;;;;;;14.95;7.28;;;3.10;99.90;;;;;;4984980;28;20272;-74
2022/02/04 06:28:07;;;;;;;13.30;7.75;;;3.00;99.90;;;;;;4978176;28;20064;-75
2022/02/04 06:30:33;;;;;;;14.32;7.53;;;2.80;99.90;;;;;;4980676;28;20031;-74
2022/02/04 06:32:59;;;;;;;11.10;6.45;;;3.00;99.90;;;;;;4983435;28;20062;-73
2022/02/04 06:35:25;;;;;;;11.40;7.07;;;2.90;99.90;;;;;;4979638;28;20033;-72
2022/02/04 06:37:50;;;;;;;12.30;6.68;;;2.90;99.90;;;;;;4983667;28;20121;-73
2022/02/04 06:40:16;;;;;;;12.30;7.20;;;3.00;99.90;;;;;;4989076;28;20029;-73
2022/02/04 06:42:42;;;;;;;14.32;7.50;;;2.90;99.90;;;;;;4989503;28;20030;-72
2022/02/04 06:45:09;;;;;;;14.02;7.55;;;2.80;99.90;;;;;;4988334;28;20065;-74
2022/02/04 06:47:35;;;;;;;15.45;7.85;;;2.80;99.90;;;;;;4988953;28;20062;-73
2022/02/04 06:50:01;;;;;;;12.07;6.20;;;2.90;99.90;;;;;;4988747;28;20088;-73
2022/02/04 06:52:27;;;;;;;12.85;7.30;;;3.20;99.90;;;;;;4988968;28;20050;-72
2022/02/04 06:54:53;;;;;;;12.80;6.75;;;3.30;99.90;;;;;;4985561;28;20766;-73
2022/02/04 06:57:19;;;;;;;13.40;6.82;;;3.10;99.90;;;;;;4988266;28;20058;-73
2022/02/04 06:59:46;;;;;;;12.77;7.28;;;2.90;99.90;;;;;;4988480;28;20030;-73
2022/02/04 07:02:13;;;;;;;15.30;7.32;;;2.90;99.90;;;;;;4987399;28;20435;-73
2022/02/04 07:04:40;;;;;;;14.60;6.50;;;2.80;99.90;;;;;;4988074;28;20037;-73
2022/02/04 07:07:06;;;;;;;14.80;7.65;;;2.90;99.90;;;;;;4979858;28;20477;-72
2022/02/04 07:19:51;;;;;;;9.52;5.05;;;3.50;99.80;;;;;;4987848;28;20034;-72
2022/02/04 07:22:19;;;;;;;10.27;5.88;;;3.70;99.10;;;;;;4983873;28;20469;-74
2022/02/04 07:24:47;;;;;;;10.65;6.28;;;3.60;99.40;;;;;;4987667;28;20049;-73
2022/02/04 07:27:12;;;;;;;8.85;4.70;;;3.60;99.40;;;;;;4985225;28;20039;-72
2022/02/04 07:29:39;;;;;;;7.35;4.25;;;3.70;99.10;;;;;;4987901;28;20109;-73
2022/02/04 07:32:59;;;;;;;8.73;5.10;;;3.90;98.50;;;;;;4987920;28;20125;-72
2022/02/04 07:42:47;;;;;;;8.77;4.00;;;4.10;97.70;;;;;;4988865;28;20344;-73
2022/02/04 07:45:13;;;;;;;9.88;4.53;;;4.20;97.60;;;;;;4979718;28;20075;-72
2022/02/04 07:47:38;;;;;;;7.85;4.90;;;4.20;97.40;;;;;;4988360;28;20134;-72
2022/02/04 07:50:05;;;;;;;12.15;5.65;;;4.20;97.10;;;;;;4983555;28;20712;-73
2022/02/04 07:52:31;;;;;;;12.38;7.05;;;4.20;97.20;;;;;;4985106;28;20049;-72
2022/02/04 07:54:57;;;;;;;10.23;7.30;;;3.80;98.10;;;;;;4985183;28;20121;-72
2022/02/04 07:57:23;;;;;;;12.48;7.55;;;3.80;98.50;;;;;;4987299;28;20030;-73
2022/02/04 07:59:49;;;;;;;10.18;6.47;;;3.80;98.50;;;;;;4987632;28;20027;-72
2022/02/04 08:02:14;;;;;;;11.98;5.68;;;3.80;98.40;;;;;;4982132;28;20108;-72
2022/02/04 08:04:45;;;;;;;15.43;6.43;;;3.80;98.30;;;;;;4987830;28;20114;-72
2022/02/04 08:07:14;;;;;;;11.40;5.40;;;3.60;98.80;;;;;;4979433;28;20396;-72
2022/02/04 08:20:53;;;;;;;12.07;6.90;;;3.80;98.10;;;;;;4987845;28;20050;-72
2022/02/04 08:34:43;;;;;;;9.30;5.53;;;3.90;98.40;;;;;;4989136;28;20512;-72
2022/02/04 08:37:39;;;;;;;8.52;4.88;;;4.10;98.20;;;;;;4988344;28;20034;-72
2022/02/04 08:53:48;;;;;;;13.68;7.13;;;3.60;99.20;;;;;;4984885;28;20413;-73
2022/02/04 08:56:19;;;;;;;13.18;7.28;;;3.60;99.00;;;;;;4988655;28;20113;-73
2022/02/04 08:58:51;;;;;;;12.57;7.30;;;3.60;98.90;;;;;;4988275;28;20132;-72
2022/02/04 09:01:26;;;;;;;13.35;6.88;;;3.60;98.80;;;;;;4987892;28;20050;-72
2022/02/04 09:04:03;;;;;;;10.25;6.63;;;3.60;99.00;;;;;;4988302;28;20050;-72
2022/02/04 09:06:36;;;;;;;14.27;6.55;;;3.60;99.00;;;;;;4979403;28;20043;-72
2022/02/04 09:09:04;;;;;;;10.93;6.72;;;3.80;99.00;;;;;;4984000;28;20947;-72
2022/02/04 09:19:40;;;;;;;10.02;5.88;;;4.10;98.80;;;;;;4988625;28;20069;-72
2022/02/04 09:22:20;;;;;;;9.40;5.32;;;4.20;98.10;;;;;;4982757;28;20023;-73
2022/02/04 09:24:46;;;;;;;18.17;6.40;;;4.30;97.70;;;;;;4987660;28;20038;-73
2022/02/04 09:27:12;;;;;;;9.38;4.82;;;4.30;97.80;;;;;;4982108;28;20033;-72
2022/02/04 09:29:37;;;;;;;10.75;6.20;;;4.30;97.60;;;;;;4987572;28;20038;-73
2022/02/04 09:32:03;;;;;;;16.55;7.38;;;4.40;97.60;;;;;;4987607;28;20126;-73
2022/02/04 09:34:29;;;;;;;18.30;7.60;;;4.30;98.20;;;;;;4986170;28;20065;-72
2022/02/04 09:36:55;;;;;;;13.85;8.00;;;4.20;98.20;;;;;;4987030;28;20070;-73
2022/02/04 09:39:20;;;;;;;13.55;7.45;;;4.20;98.20;;;;;;4985693;28;20026;-72
2022/02/04 09:41:46;;;;;;;14.35;8.40;;;4.20;98.40;;;;;;4986532;28;20026;-72
2022/02/04 09:44:12;;;;;;;11.23;7.70;;;4.40;98.20;;;;;;4983811;28;20027;-72
2022/02/04 09:46:39;;;;;;;13.82;8.45;;;4.40;98.20;;;;;;4987124;28;20045;-72
2022/02/04 09:49:16;;;;;;;13.35;7.68;;;4.40;98.20;;;;;;4987313;28;20030;-72
2022/02/04 10:17:10;;;;;;;12.27;6.40;;;5.00;97.10;;;;;;4984071;28;20352;-72
2022/02/04 10:22:19;;;;;;;12.85;5.65;;;5.50;96.40;;;;;;4986598;28;20060;-73
2022/02/04 10:25:09;;;;;;;11.90;5.68;;;5.50;96.30;;;;;;4986191;28;20085;-72
2022/02/04 10:27:36;;;;;;;11.90;6.55;;;5.40;96.30;;;;;;4986439;28;20633;-72
2022/02/04 10:30:11;;;;;;;9.43;6.45;;;5.40;96.20;;;;;;4984584;28;20085;-73
2022/02/04 10:32:36;;;;;;;;;;;5.40;96.00;;;;;;4986705;28;20039;-72
2022/02/04 10:35:06;;;;;;;11.25;6.03;;;5.40;96.10;;;;;;4977523;28;19957;-72
2022/02/04 10:37:35;;;;;;;9.77;5.80;;;5.50;96.10;;;;;;4986234;28;20053;-73
2022/02/04 10:40:18;;;;;;;10.82;5.95;;;5.60;96.00;;;;;;4985403;28;20093;-73
2022/02/04 10:48:25;;;;;;;10.30;5.63;;;5.60;95.60;;;;;;4986170;28;19993;-72
2022/02/04 10:51:29;;;;;;;11.30;6.25;;;5.60;95.80;;;;;;4982890;28;20050;-72
2022/02/04 10:54:35;;;;;;;12.30;5.85;;;5.70;95.80;;;;;;4983561;28;20042;-72
2022/02/04 10:57:16;;;;;;;10.88;5.55;;;5.80;95.80;;;;;;4982344;28;20038;-73
2022/02/04 11:00:02;;;;;;;11.02;5.72;;;5.90;95.80;;;;;;4977454;28;20122;-72
2022/02/04 11:02:53;;;;;;;12.38;6.82;;;5.90;95.70;;;;;;4983157;28;20030;-72
2022/02/04 11:05:29;;;;;;;12.20;5.75;;;6.10;95.70;;;;;;4984094;28;20038;-72
2022/02/04 11:11:01;;;;;;;9.88;6.00;;;6.10;95.10;;;;;;4982772;28;20049;-72
2022/02/04 11:33:48;;;;;;;13.98;6.15;;;6.80;93.70;;;;;;4985496;28;20101;-73
2022/02/04 11:35:49;;;;;;;11.88;6.55;;;6.70;93.80;;;;;;4981345;28;20041;-72
2022/02/04 11:52:41;;;;;;;9.98;6.40;;;7.60;93.30;;;;;;4984728;28;20360;-72
2022/02/04 11:55:10;;;;;;;10.90;6.55;;;7.80;92.60;;;;;;4984762;28;20057;-73
2022/02/04 11:57:38;;;;;;;11.93;6.95;;;8.00;92.60;;;;;;4982783;28;20034;-73
2022/02/04 12:00:05;;;;;;;13.32;7.05;;;8.30;92.70;;;;;;4973911;28;20132;-73
2022/02/04 12:02:34;;;;;;;10.82;6.25;;;8.40;92.10;;;;;;4981881;28;20046;-73
2022/02/04 12:05:08;;;;;;;14.45;6.55;;;8.10;91.90;;;;;;4982305;28;20030;-72
2022/02/04 12:07:35;;;;;;;;;;;8.00;92.30;;;;;;4975998;28;20046;-72
2022/02/04 12:10:02;;;;;;;10.45;6.40;;;8.00;92.40;;;;;;4984742;28;20028;-73
2022/02/04 12:12:56;;;;;;;12.75;7.60;;;8.00;92.30;;;;;;4984699;28;20117;-73
2022/02/04 12:15:28;;;;;;;12.80;7.18;;;8.20;91.90;;;;;;4983322;28;20033;-74
2022/02/04 12:18:02;;;;;;;12.77;6.28;;;8.20;92.10;;;;;;4982128;28;20046;-72
2022/02/04 12:21:04;;;;;;;12.80;6.85;;;8.60;92.00;;;;;;4984156;28;20030;-72
2022/02/04 12:23:32;;;;;;;10.63;6.70;;;8.70;91.80;;;;;;4984133;28;20092;-73
2022/02/04 12:26:08;;;;;;;10.70;6.63;;;8.80;91.60;;;;;;4984388;28;20039;-72
2022/02/04 12:28:47;;;;;;;14.30;7.68;;;8.90;91.40;;;;;;4980942;28;20507;-72
2022/02/04 12:31:29;;;;;;;16.35;8.13;;;8.50;91.30;;;;;;4977979;28;20520;-73
2022/02/04 12:33:56;;;;;;;9.73;6.05;;;8.60;91.70;;;;;;4981490;28;20046;-72
2022/02/04 12:36:31;;;;;;;12.10;6.75;;;8.60;91.30;;;;;;4984660;28;20489;-73
2022/02/04 12:39:00;;;;;;;11.70;6.63;;;8.80;91.50;;;;;;4981863;28;20034;-72
2022/02/04 12:41:30;;;;;;;15.18;6.72;;;8.80;91.20;;;;;;4987612;28;20446;-72
2022/02/04 12:44:05;;;;;;;13.07;6.70;;;8.50;91.10;;;;;;4987976;28;20034;-73
2022/02/04 12:46:32;;;;;;;15.45;7.65;;;8.50;91.50;;;;;;4987701;28;20031;-72
2022/02/04 12:49:06;;;;;;;14.43;8.32;;;8.60;91.60;;;;;;4984990;28;20042;-73
2022/02/04 12:51:41;;;;;;;13.25;6.40;;;8.70;91.40;;;;;;4986444;28;20030;-72
2022/02/04 12:54:07;;;;;;;13.57;8.07;;;8.90;91.00;;;;;;4987818;28;20661;-73
2022/02/04 12:56:37;;;;;;;12.98;7.30;;;8.90;91.00;;;;;;4987346;28;20612;-73
2022/02/04 13:07:31;;;;;;;13.63;8.35;;;8.70;90.70;;;;;;4975003;28;20524;-73
2022/02/04 13:09:58;;;;;;;18.98;12.88;;;8.80;90.90;;;;;;4990828;28;20065;-73
2022/02/04 13:12:23;;;;;;;13.82;9.07;;;9.00;90.80;;;;;;4991144;28;20401;-73
2022/02/04 13:14:50;;;;;;;12.93;8.88;;;9.30;90.90;;;;;;4989744;28;20022;-73
2022/02/04 13:17:34;;;;;;;13.48;7.25;;;9.40;90.50;;;;;;4991272;28;20117;-73
2022/02/04 13:20:00;;;;;;;17.02;9.38;;;9.30;90.40;;;;;;4991058;28;20473;-73
2022/02/04 13:22:26;;;;;;;14.23;7.78;;;9.20;90.40;;;;;;4990901;28;20086;-73
2022/02/04 13:25:04;;;;;;;15.52;8.88;;;9.20;90.50;;;;;;4984184;28;20045;-73
2022/02/04 13:27:30;;;;;;;14.90;8.32;;;9.30;90.70;;;;;;4988081;28;20039;-73
2022/02/04 13:29:56;;;;;;;10.82;6.60;;;9.30;90.50;;;;;;4980070;28;20240;-72
2022/02/04 13:32:23;;;;;;;18.23;8.48;;;9.20;90.50;;;;;;4987012;28;20088;-73
2022/02/04 13:34:49;;;;;;;11.50;7.63;;;9.00;90.60;;;;;;4982011;28;20022;-73
2022/02/04 13:37:32;;;;;;;13.07;7.40;;;9.00;90.40;;;;;;4990493;28;20035;-72
2022/02/04 13:40:03;;;;;;;13.30;7.18;;;8.80;90.50;;;;;;4990121;28;20530;-73
2022/02/04 13:42:44;;;;;;;11.43;7.75;;;8.90;90.80;;;;;;4984254;28;20042;-73
2022/02/04 13:45:39;;;;;;;12.90;8.30;;;9.10;90.70;;;;;;4989851;28;20030;-72
2022/02/04 13:48:25;;;;;;;13.60;8.73;;;9.20;90.70;;;;;;4990228;28;20504;-73
2022/02/04 13:51:11;;;;;;;14.77;8.75;;;9.20;90.60;;;;;;4989702;28;20068;-74
2022/02/04 13:53:50;;;;;;;15.02;8.43;;;9.10;90.60;;;;;;4989786;28;20050;-74
2022/02/04 13:56:40;;;;;;;16.85;8.82;;;9.10;90.80;;;;;;4983267;28;20027;-74
2022/02/04 13:59:30;;;;;;;12.60;8.80;;;9.20;90.80;;;;;;4986676;28;20310;-73
2022/02/04 14:02:13;;;;;;;14.02;8.45;;;9.20;90.80;;;;;;4989842;28;20026;-73
2022/02/04 14:04:53;;;;;;;17.55;8.73;;;9.40;91.20;;;;;;4987847;28;20077;-73
2022/02/04 14:07:22;;;;;;;16.52;10.10;;;9.70;91.00;;;;;;4981356;28;20080;-73
2022/02/04 14:09:55;;;;;;;17.00;10.27;;;9.70;91.00;;;;;;4989333;28;20837;-73
2022/02/04 14:12:22;;;;;;;14.02;9.60;;;9.70;90.90;;;;;;4989810;28;20041;-73
2022/02/04 14:15:00;;;;;;;16.45;9.63;;;9.70;91.10;;;;;;4987361;28;20069;-72
2022/02/04 14:17:31;;;;;;;16.67;10.88;;;9.90;91.00;;;;;;4989816;28;20606;-73
2022/02/04 14:19:57;;;;;;;17.90;11.50;;;10.00;91.10;;;;;;4984604;28;20046;-73
2022/02/04 14:22:24;;;;;;;18.63;11.52;;;10.00;91.30;;;;;;4982617;28;20485;-72
2022/02/04 14:24:50;;;;;;;21.65;12.13;;;10.00;91.10;;;;;;4982663;28;20064;-73
2022/02/04 14:27:16;;;;;;;18.73;11.95;;;9.90;91.30;;;;;;4989448;28;20580;-73
2022/02/04 14:29:59;;;;;;;23.08;12.27;;;9.90;91.70;;;;;;4981720;28;20054;-73
2022/02/04 14:32:35;;;;;;;20.48;12.52;;;10.00;91.90;;;;;;4986466;28;20106;-72
2022/02/04 14:37:58;;;;;;;18.98;12.00;;;9.70;91.70;;;;;;4989886;28;20030;-73
2022/02/04 14:54:09;;;;;;;23.10;12.90;;;9.70;91.90;;;;;;4963390;28;20277;-74
2022/02/04 15:01:57;;;;;;;22.73;13.57;;;9.70;92.30;;;;;;4978213;28;20047;-72
2022/02/04 15:04:36;;;;;;;28.50;13.77;;;9.60;92.30;;;;;;4986420;28;20519;-73
2022/02/04 15:07:03;;;;;;;19.33;12.70;;;9.50;92.40;;;;;;4982232;28;20026;-72
2022/02/04 15:09:30;;;;;;;19.67;12.75;;;9.50;92.60;;;;;;4988805;28;20750;-72
2022/02/04 15:11:56;;;;;;;23.48;13.35;;;9.50;92.80;;;;;;4988171;28;20038;-72
2022/02/04 15:14:21;;;;;;;23.50;13.43;;;9.50;92.80;;;;;;4982997;28;20038;-72
2022/02/04 15:16:47;;;;;;;20.33;13.35;;;9.50;93.00;;;;;;4986699;28;20039;-72
2022/02/04 15:19:13;;;;;;;21.17;13.30;;;9.40;93.10;;;;;;4988169;28;20096;-73
2022/02/04 15:21:43;;;;;;;18.85;12.82;;;9.60;93.10;;;;;;4988075;28;20447;-72
2022/02/04 15:24:10;;;;;;;20.42;13.88;;;9.60;93.00;;;;;;4984040;28;20389;-72
2022/02/04 15:26:37;;;;;;;20.73;12.73;;;9.50;93.00;;;;;;4987994;28;20066;-72
2022/02/04 15:29:07;;;;;;;22.15;13.77;;;9.40;93.10;;;;;;4985366;28;20037;-72
2022/02/04 15:34:00;;;;;;;23.35;13.98;;;9.20;93.30;;;;;;4988344;28;20050;-72
2022/02/04 15:36:30;;;;;;;21.30;13.68;;;9.20;93.40;;;;;;4988259;28;20563;-72
2022/02/04 15:38:57;;;;;;;22.00;13.90;;;9.20;93.50;;;;;;4986961;28;20377;-72
2022/02/04 15:41:25;;;;;;;25.75;13.38;;;9.00;93.80;;;;;;4978787;28;20062;-72
2022/02/04 15:43:55;;;;;;;22.17;14.18;;;9.00;94.00;;;;;;4988670;28;20121;-72
2022/02/04 15:56:56;;;;;;;21.10;11.35;;;8.50;93.20;;;;;;4985983;28;20121;-72
2022/02/04 15:59:39;;;;;;;22.35;12.82;;;8.50;93.70;;;;;;4980659;28;20038;-72
2022/02/04 16:04:51;;;;;;;17.40;10.25;;;8.40;94.20;;;;;;4987917;28;20057;-72
2022/02/04 16:07:19;;;;;;;19.67;10.32;;;8.30;93.80;;;;;;4979736;28;20041;-72
2022/02/04 16:09:50;;;;;;;24.50;11.30;;;8.20;93.80;;;;;;4986692;28;20030;-72
2022/02/04 16:12:32;;;;;;;16.05;10.38;;;8.10;93.90;;;;;;4988121;28;20493;-72
2022/02/04 16:17:32;;;;;;;16.27;10.45;;;8.00;94.40;;;;;;4988026;28;20125;-72
2022/02/04 16:30:11;;;;;;;18.42;11.23;;;7.90;95.90;;;;;;4987906;28;20081;-73
2022/02/04 16:32:37;;;;;;;18.58;10.48;;;7.70;94.70;;;;;;4982114;28;20097;-72
2022/02/04 16:35:04;;;;;;;18.88;11.48;;;7.60;94.80;;;;;;4986798;28;20484;-72
2022/02/04 16:37:34;;;;;;;22.10;14.10;;;7.60;94.80;;;;;;4983679;28;20089;-73
2022/02/04 16:40:04;;;;;;;18.50;11.60;;;7.60;95.40;;;;;;4987481;28;20512;-73
2022/02/04 16:42:31;;;;;;;19.30;11.70;;;7.40;94.30;;;;;;4988136;28;20136;-72
2022/02/04 16:44:57;;;;;;;18.13;11.13;;;7.20;94.30;;;;;;4991227;28;20105;-72
2022/02/04 16:47:23;;;;;;;18.30;8.38;;;6.90;94.40;;;;;;4989550;28;20030;-72
2022/02/04 16:49:49;;;;;;;13.02;8.38;;;6.70;94.60;;;;;;4982638;28;20496;-72
2022/02/04 16:52:15;;;;;;;15.35;7.95;;;6.70;94.60;;;;;;4988466;28;20046;-72
2022/02/04 16:54:41;;;;;;;13.88;7.82;;;6.70;94.60;;;;;;4986096;28;20037;-73
2022/02/04 16:57:58;;;;;;;16.10;9.55;;;6.60;94.60;;;;;;5125081;27;20112;-72
2022/02/04 17:00:25;;;;;;;14.70;9.15;;;6.60;94.90;;;;;;5122112;27;20038;-73
2022/02/04 17:02:54;;;;;;;14.18;8.60;;;6.60;95.30;;;;;;5125943;28;20114;-72
2022/02/04 17:05:23;;;;;;;21.08;10.80;;;6.40;95.10;;;;;;5116508;28;20034;-71
2022/02/04 17:07:54;;;;;;;15.73;9.40;;;6.40;95.60;;;;;;5115468;27;20031;-72
2022/02/04 17:10:27;;;;;;;19.63;11.05;;;6.50;95.10;;;;;;5112998;28;20434;-72
2022/02/04 17:12:59;;;;;;;18.45;10.25;;;6.60;95.30;;;;;;5122162;28;20441;-72
2022/02/04 17:15:30;;;;;;;19.73;10.07;;;6.40;95.00;;;;;;5120872;28;20026;-72
2022/02/04 17:17:57;;;;;;;15.52;8.80;;;6.20;95.00;;;;;;5125621;28;20480;-73
2022/02/04 17:20:23;;;;;;;16.25;9.25;;;6.10;95.40;;;;;;5113961;28;20542;-72
2022/02/04 17:22:49;;;;;;;17.98;9.68;;;6.00;95.70;;;;;;5114106;28;20051;-72
2022/02/04 17:25:15;;;;;;;25.05;10.23;;;6.10;96.00;;;;;;5119619;28;20365;-73
2022/02/04 17:27:43;;;;;;;22.95;11.00;;;6.20;96.30;;;;;;5105572;27;20050;-72
2022/02/04 17:30:13;;;;;;;24.98;13.85;;;6.10;95.90;;;;;;5118927;28;20046;-71
2022/02/04 17:32:40;;;;;;;25.38;13.20;;;6.20;97.60;;;;;;5124146;28;20092;-71
2022/02/04 17:35:07;;;;;;;22.38;12.20;;;6.20;96.80;;;;;;5122491;28;20450;-72
2022/02/04 17:37:34;;;;;;;24.98;13.60;;;6.20;96.80;;;;;;5123661;28;20039;-71
2022/02/04 17:40:03;;;;;;;25.27;15.25;;;6.30;97.70;;;;;;5111139;27;20439;-71
2022/02/04 17:42:29;;;;;;;19.38;12.93;;;6.50;98.10;;;;;;5118099;28;20023;-71
2022/02/04 17:44:55;;;;;;;31.95;12.93;;;6.50;97.10;;;;;;5123296;28;20027;-71
2022/02/04 17:47:25;;;;;;;19.08;9.85;;;6.50;97.70;;;;;;5120654;28;20465;-73
2022/02/04 17:50:21;;;;;;;19.40;10.52;;;6.30;96.20;;;;;;5121236;27;20028;-72
2022/02/04 17:53:17;;;;;;;17.10;11.02;;;6.10;96.90;;;;;;5105022;27;20039;-72
2022/02/04 17:55:54;;;;;;;17.65;11.32;;;6.30;97.10;;;;;;5117499;28;20126;-72
2022/02/04 17:58:40;;;;;;;18.08;9.80;;;6.30;97.20;;;;;;5115624;28;20035;-72
2022/02/04 18:07:32;;;;;;;25.60;11.82;;;5.90;98.00;;;;;;5108471;28;20063;-72
2022/02/04 18:10:09;;;;;;;19.88;12.90;;;6.10;98.60;;;;;;5108204;28;20095;-71
2022/02/04 18:12:36;;;;;;;27.02;14.60;;;6.00;98.00;;;;;;5108429;28;20032;-71
2022/02/04 18:15:05;;;;;;;33.70;15.85;;;6.10;99.60;;;;;;5105126;28;20028;-71
2022/02/04 18:17:31;;;;;;;24.00;14.85;;;6.30;99.90;;;;;;5102830;28;20492;-71
2022/02/04 18:19:57;;;;;;;25.98;14.82;;;6.30;99.10;;;;;;5050777;28;20071;-72
2022/02/04 18:22:23;;;;;;;24.92;14.23;;;6.00;99.90;;;;;;5050056;28;20064;-70
2022/02/04 18:24:49;;;;;;;22.73;14.10;;;5.90;99.70;;;;;;5046616;28;20033;-72
2022/02/04 18:27:15;;;;;;;22.80;14.38;;;5.80;99.50;;;;;;5047244;28;20040;-72
2022/02/04 18:29:45;;;;;;;25.55;14.40;;;5.60;99.20;;;;;;5047346;28;20040;-69
2022/02/04 18:32:13;;;;;;;22.00;13.68;;;5.80;99.90;;;;;;5049128;28;20033;-72
2022/02/04 18:34:38;;;;;;;21.48;11.57;;;5.50;99.00;;;;;;5044886;28;20052;-72
2022/02/04 18:37:05;;;;;;;19.50;10.98;;;5.40;99.10;;;;;;5039163;28;20064;-74
2022/02/04 18:44:48;;;;;;;18.67;10.47;;;5.40;98.50;;;;;;5044227;28;20438;-73
2022/02/04 18:47:34;;;;;;;24.02;11.55;;;5.50;98.50;;;;;;5031794;28;20276;-76
2022/02/04 18:52:44;;;;;;;19.00;11.30;;;5.50;98.50;;;;;;5040834;28;20137;-73
2022/02/04 18:57:36;;;;;;;21.60;11.98;;;5.50;98.70;;;;;;5037119;28;20049;-73
2022/02/04 19:00:12;;;;;;;20.52;11.90;;;5.30;99.20;;;;;;5037652;28;20108;-75
2022/02/04 19:02:40;;;;;;;23.63;13.50;;;5.20;99.70;;;;;;5035783;28;20021;-73
2022/02/04 19:05:31;;;;;;;22.60;12.27;;;5.20;99.90;;;;;;5036309;28;20040;-75
2022/02/04 19:08:01;;;;;;;27.75;15.57;;;4.90;99.90;;;;;;5036367;28;20477;-74
2022/02/04 19:10:27;;;;;;;26.45;14.25;;;4.80;99.90;;;;;;5037623;28;20645;-74
2022/02/04 19:13:05;;;;;;;26.10;14.60;;;5.00;99.90;;;;;;5036722;28;20104;-75
2022/02/04 19:18:02;;;;;;;23.30;15.32;;;5.10;99.90;;;;;;5039785;28;20114;-74